createdAt,value
2022-10-25T00:00:49.928Z,97620.53
2022-10-25T00:03:16.416Z,97628.28
2022-10-25T00:05:42.982Z,97626.53
2022-10-25T00:08:09.508Z,97616.06
2022-10-25T00:10:36.199Z,97631.66
2022-10-25T00:13:02.793Z,97631.66
2022-10-25T00:15:29.303Z,97638.50
2022-10-25T00:17:56.978Z,97639.38
2022-10-25T00:20:23.458Z,97635.09
2022-10-25T00:22:50.018Z,97634.19
2022-10-25T00:25:16.595Z,97631.66
2022-10-25T00:27:43.075Z,97634.25
2022-10-25T00:30:10.291Z,97635.09
2022-10-25T00:32:36.834Z,97629.94
2022-10-25T00:35:03.516Z,97634.25
2022-10-25T00:37:30.285Z,97636.81
2022-10-25T00:39:56.796Z,97630.78
2022-10-25T00:42:24.813Z,97641.06
2022-10-25T00:44:56.152Z,97644.50
2022-10-25T00:47:22.528Z,97647.06
2022-10-25T00:50:21.365Z,97645.34
2022-10-25T00:52:58.868Z,97643.63
2022-10-25T00:55:25.728Z,97621.75
2022-10-25T00:57:58.505Z,97650.44
2022-10-25T01:00:25.567Z,97647.03
2022-10-25T01:02:52.176Z,97641.06
2022-10-25T01:05:18.890Z,97645.31
2022-10-25T01:07:45.622Z,97651.31
2022-10-25T01:10:12.513Z,97652.16
2022-10-25T01:12:38.997Z,97648.72
2022-10-25T01:15:05.842Z,97649.56
2022-10-25T01:17:38.938Z,97657.28
2022-10-25T01:20:42.893Z,97646.16
2022-10-25T01:23:28.119Z,97637.34
2022-10-25T01:25:56.523Z,97645.25
2022-10-25T01:28:53.485Z,97644.41
2022-10-25T01:31:50.516Z,97645.25
2022-10-25T01:34:39.420Z,97650.41
2022-10-25T01:37:28.773Z,97628.78
2022-10-25T01:40:10.376Z,97633.25
2022-10-25T01:43:11.776Z,97637.50
2022-10-25T01:45:52.792Z,97645.19
2022-10-25T01:48:21.765Z,97643.34
2022-10-25T01:50:48.311Z,97640.91
2022-10-25T01:53:14.855Z,97645.16
2022-10-25T01:55:51.527Z,97628.94
2022-10-25T01:58:44.313Z,97642.69
2022-10-25T02:01:14.382Z,97632.34
2022-10-25T02:03:43.319Z,97647.75
2022-10-25T02:06:26.874Z,97643.50
2022-10-25T02:08:53.274Z,97643.50
2022-10-25T02:11:24.507Z,97626.25
2022-10-25T02:14:22.524Z,97634.06
2022-10-25T02:17:05.717Z,97639.19
2022-10-25T02:19:34.201Z,97640.88
2022-10-25T02:22:01.414Z,97638.31
2022-10-25T02:24:28.396Z,97642.56
2022-10-25T02:26:54.875Z,97640.00
2022-10-25T02:29:21.406Z,97634.88
2022-10-25T02:31:47.965Z,97634.00
2022-10-25T02:34:14.467Z,97640.00
2022-10-25T02:36:40.964Z,97637.38
2022-10-25T02:39:07.647Z,97630.31
2022-10-25T02:41:34.377Z,97643.31
2022-10-25T02:44:00.862Z,97651.09
2022-10-25T02:46:27.391Z,97658.78
2022-10-25T02:48:53.932Z,97648.50
2022-10-25T02:51:20.468Z,97642.44
2022-10-25T02:53:46.962Z,97653.56
2022-10-25T02:56:17.687Z,97649.38
2022-10-25T02:58:44.638Z,97649.38
2022-10-25T03:01:11.524Z,97655.25
2022-10-25T03:03:38.310Z,97637.97
2022-10-25T03:06:04.960Z,97656.19
2022-10-25T03:08:31.609Z,97663.00
2022-10-25T03:10:58.103Z,97665.56
2022-10-25T03:13:24.599Z,97672.44
2022-10-25T03:15:51.140Z,97661.31
2022-10-25T03:18:17.615Z,97653.53
2022-10-25T03:20:44.157Z,97663.00
2022-10-25T03:23:10.899Z,97661.25
2022-10-25T03:25:37.462Z,97599.63
2022-10-25T03:28:04.045Z,97657.88
2022-10-25T03:30:30.669Z,97661.22
2022-10-25T03:32:57.484Z,97657.78
2022-10-25T03:35:23.967Z,97667.28
2022-10-25T03:37:50.914Z,97680.91
2022-10-25T03:40:17.762Z,97683.47
2022-10-25T03:42:44.247Z,97700.56
2022-10-25T03:45:11.093Z,97694.59
2022-10-25T03:47:38.080Z,97693.72
2022-10-25T03:50:05.370Z,97695.44
2022-10-25T03:52:31.926Z,97686.84
2022-10-25T03:54:58.401Z,97690.31
2022-10-25T03:57:24.895Z,97690.31
2022-10-25T03:59:51.384Z,97699.69
2022-10-25T04:02:17.899Z,97699.69
2022-10-25T04:04:44.384Z,97699.69
2022-10-25T04:07:10.905Z,97706.50
2022-10-25T04:09:37.399Z,97701.38
2022-10-25T04:12:04.093Z,97705.69
2022-10-25T04:14:30.563Z,97702.25
2022-10-25T04:16:57.049Z,97695.44
2022-10-25T04:19:23.557Z,97701.41
2022-10-25T04:21:50.029Z,97695.44
2022-10-25T04:24:16.571Z,97693.72
2022-10-25T04:26:43.381Z,97695.44
2022-10-25T04:29:10.249Z,97695.44
2022-10-25T04:31:36.758Z,97695.44
2022-10-25T04:34:03.255Z,97696.28
2022-10-25T04:36:30.070Z,97690.28
2022-10-25T04:38:56.599Z,97698.00
2022-10-25T04:41:23.095Z,97701.38
2022-10-25T04:43:50.675Z,97693.72
2022-10-25T04:46:17.211Z,97693.72
2022-10-25T04:48:43.719Z,97698.84
2022-10-25T04:51:10.497Z,97697.97
2022-10-25T04:53:37.029Z,97698.78
2022-10-25T04:56:11.172Z,97705.56
2022-10-25T04:58:37.727Z,97702.91
2022-10-25T05:01:09.379Z,97706.31
2022-10-25T05:03:36.108Z,97703.63
2022-10-25T05:06:10.018Z,97701.81
2022-10-25T05:08:40.023Z,97709.47
2022-10-25T05:11:07.224Z,97704.25
2022-10-25T05:13:34.760Z,97715.28
2022-10-25T05:16:01.443Z,97716.06
2022-10-25T05:18:27.923Z,97712.53
2022-10-25T05:20:59.016Z,97713.34
2022-10-25T05:23:25.927Z,97724.38
2022-10-25T05:26:20.367Z,97723.47
2022-10-25T05:28:48.195Z,97737.06
2022-10-25T05:31:18.389Z,97727.47
2022-10-25T05:33:45.188Z,97740.31
2022-10-25T05:36:12.480Z,97731.69
2022-10-25T05:38:39.040Z,97735.00
2022-10-25T05:41:05.693Z,97737.44
2022-10-25T05:43:32.219Z,97744.38
2022-10-25T05:46:21.465Z,97744.28
2022-10-25T05:48:49.225Z,97745.94
2022-10-25T05:51:32.209Z,97748.47
2022-10-25T05:54:01.412Z,97745.78
2022-10-25T05:56:28.778Z,97750.03
2022-10-25T05:58:57.152Z,97756.91
2022-10-25T06:01:24.165Z,97762.78
2022-10-25T06:03:51.402Z,97767.16
2022-10-25T06:06:18.059Z,97767.16
2022-10-25T06:08:44.640Z,97767.16
2022-10-25T06:11:18.469Z,97768.00
2022-10-25T06:13:44.940Z,97762.88
2022-10-25T06:16:13.056Z,97766.38
2022-10-25T06:18:39.727Z,97784.31
2022-10-25T06:21:16.924Z,97774.06
2022-10-25T06:23:44.825Z,97778.34
2022-10-25T06:26:15.756Z,97774.97
2022-10-25T06:28:42.304Z,97786.94
2022-10-25T06:31:16.463Z,97780.06
2022-10-25T06:33:43.151Z,97795.56
2022-10-25T06:36:15.253Z,97798.97
2022-10-25T06:38:41.828Z,97787.69
2022-10-25T06:41:11.409Z,97801.59
2022-10-25T06:43:38.821Z,97794.81
2022-10-25T06:46:18.140Z,97794.88
2022-10-25T06:48:44.641Z,97811.16
2022-10-25T06:51:11.122Z,97802.63
2022-10-25T06:53:37.783Z,97810.41
2022-10-25T06:56:06.551Z,97797.56
2022-10-25T06:58:34.998Z,97801.88
2022-10-25T07:01:08.727Z,97808.72
2022-10-25T07:03:35.369Z,97807.00
2022-10-25T07:06:09.170Z,97806.22
2022-10-25T07:08:36.406Z,97800.91
2022-10-25T07:11:03.217Z,97826.72
2022-10-25T07:13:31.021Z,97820.78
2022-10-25T07:16:07.665Z,97808.81
2022-10-25T07:18:34.390Z,97817.34
2022-10-25T07:21:04.778Z,97818.28
2022-10-25T07:23:31.293Z,97816.59
2022-10-25T07:25:58.015Z,97820.88
2022-10-25T07:28:24.668Z,97831.13
2022-10-25T07:30:51.188Z,97813.06
2022-10-25T07:33:18.676Z,97815.81
2022-10-25T07:36:06.262Z,97816.69
2022-10-25T07:38:35.720Z,97801.03
2022-10-25T07:41:02.252Z,97815.81
2022-10-25T07:43:28.935Z,97814.13
2022-10-25T07:45:55.528Z,97817.53
2022-10-25T07:48:22.446Z,97820.97
2022-10-25T07:50:49.054Z,97822.63
2022-10-25T07:53:15.531Z,97830.38
2022-10-25T07:55:42.037Z,97836.38
2022-10-25T07:58:10.088Z,97831.28
2022-10-25T08:00:36.696Z,97832.94
2022-10-25T08:03:03.631Z,97834.72
2022-10-25T08:05:30.195Z,97828.69
2022-10-25T08:07:56.679Z,97827.03
2022-10-25T08:10:23.203Z,97820.19
2022-10-25T08:12:49.735Z,97822.75
2022-10-25T08:15:16.604Z,97814.22
2022-10-25T08:17:43.114Z,97823.63
2022-10-25T08:20:09.975Z,97827.06
2022-10-25T08:22:36.471Z,97836.47
2022-10-25T08:25:05.236Z,97821.72
2022-10-25T08:27:32.386Z,97839.03
2022-10-25T08:29:58.941Z,97832.91
2022-10-25T08:32:25.461Z,97845.06
2022-10-25T08:34:51.929Z,97839.03
2022-10-25T08:37:18.451Z,97833.00
2022-10-25T08:39:45.001Z,97841.66
2022-10-25T08:42:17.564Z,97844.16
2022-10-25T08:44:51.955Z,97839.84
2022-10-25T08:47:35.053Z,97847.66
2022-10-25T08:50:10.557Z,97843.38
2022-10-25T08:52:45.700Z,97852.81
2022-10-25T08:55:41.814Z,97850.25
2022-10-25T08:58:26.329Z,97842.56
2022-10-25T09:00:52.852Z,97846.00
2022-10-25T09:03:25.781Z,97840.84
2022-10-25T09:06:08.444Z,97846.88
2022-10-25T09:08:50.145Z,97842.63
2022-10-25T09:11:41.521Z,97846.88
2022-10-25T09:14:41.523Z,97834.06
2022-10-25T09:17:25.301Z,97834.06
2022-10-25T09:20:09.139Z,97833.22
2022-10-25T09:22:48.717Z,97827.25
2022-10-25T09:25:26.005Z,97833.22
2022-10-25T09:28:00.281Z,97826.38
2022-10-25T09:30:27.924Z,97832.38
2022-10-25T09:32:56.858Z,97832.41
2022-10-25T09:35:31.065Z,97827.16
2022-10-25T09:38:21.903Z,97833.25
2022-10-25T09:40:50.955Z,97832.41
2022-10-25T09:43:23.114Z,97833.25
2022-10-25T09:45:51.943Z,97834.09
2022-10-25T09:48:25.908Z,97831.53
2022-10-25T09:50:55.504Z,97827.97
2022-10-25T09:53:24.147Z,97840.94
2022-10-25T09:55:53.066Z,97839.19
2022-10-25T09:58:38.772Z,97845.22
2022-10-25T10:01:12.227Z,97843.50
2022-10-25T10:03:38.775Z,97842.72
2022-10-25T10:06:17.318Z,97846.91
2022-10-25T10:08:49.175Z,97846.94
2022-10-25T10:11:16.479Z,97813.94
2022-10-25T10:14:06.228Z,97846.94
2022-10-25T10:16:39.583Z,97826.22
2022-10-25T10:19:22.156Z,97842.72
2022-10-25T10:21:49.178Z,97829.75
2022-10-25T10:24:27.205Z,97847.00
2022-10-25T10:26:57.139Z,97842.75
2022-10-25T10:29:34.780Z,97841.03
2022-10-25T10:32:03.027Z,97838.47
2022-10-25T10:34:31.332Z,97840.19
2022-10-25T10:37:21.779Z,97841.91
2022-10-25T10:39:58.251Z,97835.06
2022-10-25T10:42:34.874Z,97836.78
2022-10-25T10:45:13.418Z,97829.97
2022-10-25T10:47:44.820Z,97829.97
2022-10-25T10:50:25.568Z,97826.50
2022-10-25T10:53:01.213Z,97821.41
2022-10-25T10:55:43.627Z,97817.16
2022-10-25T10:58:24.818Z,97820.53
2022-10-25T11:01:05.921Z,97819.69
2022-10-25T11:03:38.898Z,97811.16
2022-10-25T11:06:29.385Z,97812.00
2022-10-25T11:09:17.990Z,97804.34
2022-10-25T11:11:44.970Z,97793.84
2022-10-25T11:14:13.639Z,97804.31
2022-10-25T11:16:55.472Z,97802.63
2022-10-25T11:19:59.605Z,97797.50
2022-10-25T11:22:35.550Z,97806.06
2022-10-25T11:25:02.083Z,97808.63
2022-10-25T11:27:51.761Z,97792.25
2022-10-25T11:30:19.968Z,97786.28
2022-10-25T11:32:52.269Z,97788.13
2022-10-25T11:35:37.641Z,97786.44
2022-10-25T11:38:22.936Z,97789.81
2022-10-25T11:41:21.740Z,97789.00
2022-10-25T11:44:12.983Z,97787.25
2022-10-25T11:46:46.324Z,97787.25
2022-10-25T11:49:21.887Z,97788.13
2022-10-25T11:52:07.030Z,97783.00
2022-10-25T11:54:41.966Z,97776.88
2022-10-25T11:57:19.161Z,97784.72
2022-10-25T11:59:48.617Z,97779.59
2022-10-25T12:02:33.353Z,97782.16
2022-10-25T12:05:30.167Z,97773.72
2022-10-25T12:08:07.119Z,97761.50
2022-10-25T12:10:38.890Z,97770.22
2022-10-25T12:13:13.813Z,97772.84
2022-10-25T12:15:46.416Z,97777.91
2022-10-25T12:18:40.389Z,97774.50
2022-10-25T12:21:07.129Z,97785.66
2022-10-25T12:23:41.304Z,97767.66
2022-10-25T12:26:21.215Z,97761.53
2022-10-25T12:28:48.399Z,97767.63
2022-10-25T12:31:28.030Z,97773.66
2022-10-25T12:34:04.583Z,97761.66
2022-10-25T12:36:35.274Z,97761.66
2022-10-25T12:39:03.048Z,97758.97
2022-10-25T12:41:36.477Z,97760.81
2022-10-25T12:44:38.453Z,97756.56
2022-10-25T12:47:23.439Z,97760.00
2022-10-25T12:50:08.289Z,97757.50
2022-10-25T12:52:57.463Z,97753.09
2022-10-25T12:56:01.057Z,97762.63
2022-10-25T12:58:48.724Z,97768.63
2022-10-25T13:01:15.129Z,97764.31
2022-10-25T13:04:26.717Z,97762.63
2022-10-25T13:06:53.260Z,97758.31
2022-10-25T13:09:23.418Z,97756.56
2022-10-25T13:12:18.522Z,97763.47
2022-10-25T13:14:50.591Z,97751.44
2022-10-25T13:17:17.033Z,97753.16
2022-10-25T13:19:55.813Z,97754.88
2022-10-25T13:22:37.684Z,97760.84
2022-10-25T13:25:05.625Z,97756.56
2022-10-25T13:27:33.018Z,97753.94
2022-10-25T13:30:09.800Z,97754.84
2022-10-25T13:32:41.308Z,97754.84
2022-10-25T13:35:16.784Z,97748.88
2022-10-25T13:37:43.415Z,97746.22
2022-10-25T13:40:19.285Z,97751.47
2022-10-25T13:42:46.566Z,97738.47
2022-10-25T13:45:31.354Z,97742.03
2022-10-25T13:48:08.008Z,97748.94
2022-10-25T13:50:42.306Z,97747.25
2022-10-25T13:53:17.751Z,97742.09
2022-10-25T13:56:22.609Z,97748.94
2022-10-25T13:58:52.949Z,97747.25
2022-10-25T14:01:20.536Z,97748.13
2022-10-25T14:04:02.397Z,97739.53
2022-10-25T14:06:36.032Z,97738.66
2022-10-25T14:09:09.824Z,97730.81
2022-10-25T14:11:41.331Z,97730.13
2022-10-25T14:14:19.769Z,97733.53
2022-10-25T14:17:11.128Z,97730.97
2022-10-25T14:19:48.630Z,97731.81
2022-10-25T14:22:38.884Z,97728.41
2022-10-25T14:25:18.922Z,97734.34
2022-10-25T14:27:45.438Z,97728.25
2022-10-25T14:30:28.885Z,97716.28
2022-10-25T14:33:00.011Z,97732.69
2022-10-25T14:35:45.468Z,97730.13
2022-10-25T14:38:22.746Z,97729.25
2022-10-25T14:40:52.926Z,97722.41
2022-10-25T14:43:32.916Z,97722.44
2022-10-25T14:45:59.288Z,97722.44
2022-10-25T14:48:25.936Z,97718.00
2022-10-25T14:50:52.903Z,97714.63
2022-10-25T14:53:19.487Z,97725.81
2022-10-25T14:56:02.506Z,97710.22
2022-10-25T14:58:39.035Z,97718.13
2022-10-25T15:01:05.608Z,97714.66
2022-10-25T15:03:32.232Z,97729.28
2022-10-25T15:05:59.233Z,97725.03
2022-10-25T15:08:26.900Z,97712.91
2022-10-25T15:11:05.465Z,97721.59
2022-10-25T15:13:48.610Z,97710.31
2022-10-25T15:16:30.628Z,97714.78
2022-10-25T15:19:09.233Z,97710.50
2022-10-25T15:21:46.615Z,97719.91
2022-10-25T15:24:14.119Z,97716.47
2022-10-25T15:26:53.900Z,97718.16
2022-10-25T15:29:42.284Z,97713.88
2022-10-25T15:32:13.075Z,97712.09
2022-10-25T15:34:40.964Z,97714.78
2022-10-25T15:37:10.497Z,97715.59
2022-10-25T15:39:37.027Z,97709.59
2022-10-25T15:42:03.592Z,97717.31
2022-10-25T15:44:30.058Z,97714.72
2022-10-25T15:46:56.555Z,97709.63
2022-10-25T15:49:23.092Z,97709.59
2022-10-25T15:51:49.626Z,97712.19
2022-10-25T15:54:20.808Z,97716.44
2022-10-25T15:56:47.521Z,97716.44
2022-10-25T15:59:14.243Z,97709.59
2022-10-25T16:01:42.172Z,97698.28
2022-10-25T16:04:15.673Z,97711.31
2022-10-25T16:06:42.724Z,97706.13
2022-10-25T16:09:09.383Z,97710.38
2022-10-25T16:11:36.459Z,97701.66
2022-10-25T16:14:04.652Z,97719.78
2022-10-25T16:16:46.128Z,97718.06
2022-10-25T16:19:16.233Z,97722.34
2022-10-25T16:21:43.144Z,97730.09
2022-10-25T16:24:09.974Z,97721.53
2022-10-25T16:26:42.732Z,97719.78
2022-10-25T16:29:16.440Z,97716.34
2022-10-25T16:31:43.314Z,97721.47
2022-10-25T16:34:09.830Z,97719.75
2022-10-25T16:36:36.345Z,97721.44
2022-10-25T16:39:04.236Z,97727.44
2022-10-25T16:41:30.746Z,97724.88
2022-10-25T16:43:57.736Z,97727.44
2022-10-25T16:46:25.047Z,97733.38
2022-10-25T16:48:51.519Z,97737.66
2022-10-25T16:51:18.343Z,97720.41
2022-10-25T16:53:46.165Z,97724.84
2022-10-25T16:56:12.710Z,97736.78
2022-10-25T16:58:39.399Z,97724.81
2022-10-25T17:01:25.682Z,97725.59
2022-10-25T17:03:52.664Z,97718.72
2022-10-25T17:06:40.413Z,97719.69
2022-10-25T17:09:05.923Z,97729.03
2022-10-25T17:11:32.497Z,97725.59
2022-10-25T17:13:58.994Z,97725.59
2022-10-25T17:16:25.497Z,97723.88
2022-10-25T17:18:51.972Z,97729.03
2022-10-25T17:21:18.467Z,97716.94
2022-10-25T17:23:44.999Z,97729.94
2022-10-25T17:26:11.662Z,97734.19
2022-10-25T17:28:43.005Z,97729.88
2022-10-25T17:31:11.429Z,97727.25
2022-10-25T17:33:37.950Z,97729.00
2022-10-25T17:36:22.287Z,97733.34
2022-10-25T17:38:50.607Z,97726.47
2022-10-25T17:41:17.206Z,97723.03
2022-10-25T17:43:43.707Z,97726.47
2022-10-25T17:46:16.061Z,97731.53
2022-10-25T17:48:42.578Z,97733.28
2022-10-25T17:51:10.199Z,97730.69
2022-10-25T17:53:36.722Z,97735.78
2022-10-25T17:56:13.620Z,97726.44
2022-10-25T17:58:41.302Z,97728.16
2022-10-25T18:01:08.126Z,97735.00
2022-10-25T18:03:34.683Z,97729.84
2022-10-25T18:06:02.299Z,97731.53
2022-10-25T18:08:28.778Z,97726.38
2022-10-25T18:10:55.310Z,97723.81
2022-10-25T18:13:23.838Z,97725.34
2022-10-25T18:15:50.700Z,97728.84
2022-10-25T18:18:17.832Z,97726.16
2022-10-25T18:20:49.180Z,97728.84
2022-10-25T18:23:18.257Z,97723.69
2022-10-25T18:25:52.231Z,97719.38
2022-10-25T18:28:18.787Z,97719.47
2022-10-25T18:30:45.331Z,97721.16
2022-10-25T18:33:14.578Z,97723.72
2022-10-25T18:38:17.019Z,97715.16
2022-10-25T18:40:44.431Z,97714.34
2022-10-25T18:43:10.921Z,97715.16
2022-10-25T18:45:37.429Z,97716.03
2022-10-25T18:48:04.292Z,97718.59
2022-10-25T18:50:30.797Z,97721.16
2022-10-25T18:52:57.329Z,97725.41
2022-10-25T18:55:26.584Z,97723.63
2022-10-25T18:57:54.746Z,97718.59
2022-10-25T19:00:26.346Z,97710.88
2022-10-25T19:02:56.463Z,97714.34
2022-10-25T19:05:23.709Z,97710.91
2022-10-25T19:07:50.349Z,97713.47
2022-10-25T19:10:17.104Z,97715.16
2022-10-25T19:12:43.626Z,97706.63
2022-10-25T19:15:10.551Z,97711.69
2022-10-25T19:17:37.081Z,97709.22
2022-10-25T19:20:03.831Z,97696.31
2022-10-25T19:22:30.322Z,97704.09
2022-10-25T19:27:29.100Z,97707.53
2022-10-25T19:29:57.703Z,97704.97
2022-10-25T19:32:24.254Z,97709.25
2022-10-25T19:37:22.189Z,97699.84
2022-10-25T19:39:49.114Z,97693.88
2022-10-25T19:42:15.675Z,97693.00
2022-10-25T19:44:42.223Z,97694.72
2022-10-25T19:47:08.695Z,97691.31
2022-10-25T19:49:35.232Z,97692.16
2022-10-25T19:52:01.751Z,97682.63
2022-10-25T19:54:28.257Z,97687.88
2022-10-25T19:56:55.401Z,97676.78
2022-10-25T19:59:21.924Z,97676.72
2022-10-25T20:01:49.169Z,97675.91
2022-10-25T20:04:15.815Z,97679.28
2022-10-25T20:06:42.304Z,97684.47
2022-10-25T20:09:10.215Z,97685.31
2022-10-25T20:11:36.778Z,97681.06
2022-10-25T20:14:03.280Z,97679.31
2022-10-25T20:16:29.912Z,97678.50
2022-10-25T20:18:56.569Z,97685.34
2022-10-25T20:21:24.448Z,97686.19
2022-10-25T20:24:01.253Z,97687.91
2022-10-25T20:26:32.386Z,97693.03
2022-10-25T20:29:00.358Z,97689.59
2022-10-25T20:31:28.145Z,97690.47
2022-10-25T20:33:54.851Z,97689.59
2022-10-25T20:36:21.435Z,97691.38
2022-10-25T20:38:48.092Z,97695.59
2022-10-25T20:41:15.381Z,97704.19
2022-10-25T20:43:43.115Z,97699.00
2022-10-25T20:46:09.627Z,97698.09
2022-10-25T20:48:36.178Z,97701.56
2022-10-25T20:51:05.487Z,97704.13
2022-10-25T20:53:34.630Z,97702.41
2022-10-25T20:56:01.230Z,97697.25
2022-10-25T20:58:27.715Z,97692.13
2022-10-25T21:00:56.239Z,97694.69
2022-10-25T21:03:26.127Z,97695.56
2022-10-25T21:05:56.490Z,97700.69
2022-10-25T21:08:23.486Z,97693.84
2022-10-25T21:10:57.415Z,97695.53
2022-10-25T21:13:24.206Z,97687.78
2022-10-25T21:15:50.883Z,97689.53
2022-10-25T21:18:17.551Z,97687.84
2022-10-25T21:20:44.825Z,97681.00
2022-10-25T21:23:11.391Z,97679.19
2022-10-25T21:25:37.930Z,97674.16
2022-10-25T21:28:04.515Z,97678.44
2022-10-25T21:30:31.012Z,97673.31
2022-10-25T21:32:57.558Z,97673.31
2022-10-25T21:35:24.152Z,97671.59
2022-10-25T21:37:50.926Z,97670.75
2022-10-25T21:40:17.696Z,97660.38
2022-10-25T21:42:44.320Z,97668.19
2022-10-25T21:45:10.942Z,97657.94
2022-10-25T21:47:37.468Z,97657.94
2022-10-25T21:50:04.915Z,97658.72
2022-10-25T21:52:31.443Z,97659.59
2022-10-25T21:54:57.956Z,97655.31
2022-10-25T21:57:24.485Z,97660.44
2022-10-25T21:59:50.960Z,97647.56
2022-10-25T22:02:17.549Z,97652.75
2022-10-25T22:04:44.143Z,97646.75
2022-10-25T22:07:10.644Z,97661.25
2022-10-25T22:09:37.167Z,97648.44
2022-10-25T22:12:03.819Z,97642.34
2022-10-25T22:14:30.279Z,97646.72
2022-10-25T22:16:56.779Z,97647.50
2022-10-25T22:21:54.693Z,97647.59
2022-10-25T22:24:21.397Z,97651.88
2022-10-25T22:26:49.712Z,97643.31
2022-10-25T22:29:16.261Z,97641.63
2022-10-25T22:31:42.810Z,97638.94
2022-10-25T22:34:09.622Z,97638.16
2022-10-25T22:36:40.118Z,97637.34
2022-10-25T22:39:07.019Z,97636.47
2022-10-25T22:41:33.757Z,97641.50
2022-10-25T22:44:00.253Z,97642.47
2022-10-25T22:46:28.543Z,97645.84
2022-10-25T22:48:56.097Z,97636.34
2022-10-25T22:51:22.908Z,97634.75
2022-10-25T22:53:49.406Z,97634.75
2022-10-25T22:56:17.475Z,97636.44
2022-10-25T22:58:48.666Z,97640.66
2022-10-25T23:01:22.805Z,97632.88
2022-10-25T23:03:51.410Z,97643.22
2022-10-25T23:06:19.382Z,97644.13
2022-10-25T23:08:45.880Z,97648.31
2022-10-25T23:11:14.487Z,97646.59
2022-10-25T23:13:41.123Z,97645.78
2022-10-25T23:16:07.871Z,97648.31
2022-10-25T23:18:34.360Z,97644.94
2022-10-25T23:21:01.491Z,97647.50
2022-10-25T23:23:28.955Z,97656.94
2022-10-25T23:25:59.191Z,97656.03
2022-10-25T23:28:25.713Z,97643.22
2022-10-25T23:30:52.211Z,97637.25
2022-10-25T23:33:18.687Z,97635.47
2022-10-25T23:35:45.192Z,97648.34
2022-10-25T23:38:12.595Z,97651.75
2022-10-25T23:40:39.642Z,97655.16
2022-10-25T23:43:06.166Z,97662.88
2022-10-25T23:45:32.636Z,97666.28
2022-10-25T23:47:59.142Z,97664.56
2022-10-25T23:50:25.640Z,97661.16
2022-10-25T23:52:52.193Z,97659.44
2022-10-25T23:55:18.823Z,97653.44
2022-10-25T23:57:45.339Z,97646.56
